Time;durP1;ratioP1;P1;durP2;ratioP2;P2;SDS_P1;SDS_P2;PMS_P1;PMS_P2;Temp;Humidity;BMP_temperature;BMP_pressure;BME280_temperature;BME280_humidity;BME280_pressure;Samples;Min_cycle;Max_cycle;Signal;HPM_P1;HPM_P2
2023/08/12 00:00:51;;;;;;;6.23;4.80;;;20.20;1.00;;;;;;5072900;28;20251;-68
2023/08/12 00:03:16;;;;;;;4.83;4.40;;;20.20;1.00;;;;;;5072886;28;20170;-68
2023/08/12 00:05:43;;;;;;;4.50;3.70;;;20.20;1.00;;;;;;5069522;28;20638;-75
2023/08/12 00:08:09;;;;;;;6.87;4.33;;;20.20;1.00;;;;;;5072744;28;20271;-75
2023/08/12 00:10:35;;;;;;;4.20;3.80;;;20.20;1.00;;;;;;5071442;28;20455;-69
2023/08/12 00:13:00;;;;;;;4.70;4.40;;;20.20;1.00;;;;;;5069396;28;20179;-75
2023/08/12 00:15:26;;;;;;;5.33;4.70;;;20.20;1.00;;;;;;5050177;28;20655;-68
2023/08/12 00:17:52;;;;;;;5.43;5.00;;;20.10;1.00;;;;;;5068440;28;20277;-74
2023/08/12 00:20:18;;;;;;;4.97;4.57;;;20.10;1.00;;;;;;5071233;28;20178;-67
2023/08/12 00:22:44;;;;;;;7.97;4.83;;;20.10;1.00;;;;;;5071441;28;20458;-75
2023/08/12 00:25:10;;;;;;;4.57;4.27;;;20.10;1.00;;;;;;5072026;28;20520;-67
2023/08/12 00:27:37;;;;;;;10.50;3.73;;;20.10;1.00;;;;;;5072547;28;20192;-69
2023/08/12 00:30:04;;;;;;;5.10;4.70;;;20.10;1.00;;;;;;5071062;28;20428;-67
2023/08/12 00:32:30;;;;;;;5.57;4.20;;;20.10;1.00;;;;;;5072674;28;20393;-67
2023/08/12 00:34:56;;;;;;;4.50;4.10;;;20.10;1.00;;;;;;5070240;28;20397;-68
2023/08/12 00:37:21;;;;;;;10.40;5.70;;;20.10;1.00;;;;;;5070520;28;20194;-70
2023/08/12 00:39:47;;;;;;;4.00;3.80;;;20.00;1.00;;;;;;5072700;28;20213;-74
2023/08/12 00:42:13;;;;;;;5.90;4.10;;;20.10;1.00;;;;;;5071126;28;20539;-69
2023/08/12 00:44:38;;;;;;;3.73;3.43;;;20.10;1.00;;;;;;5071354;28;20232;-68
2023/08/12 00:47:05;;;;;;;4.27;3.97;;;20.10;1.00;;;;;;5071640;28;20220;-67
2023/08/12 00:49:32;;;;;;;5.10;4.70;;;20.10;1.00;;;;;;5072463;28;20167;-68
2023/08/12 00:51:59;;;;;;;8.30;4.43;;;20.10;1.00;;;;;;5070889;28;20996;-67
2023/08/12 00:54:26;;;;;;;4.90;4.50;;;20.00;1.00;;;;;;5070794;28;20788;-67
2023/08/12 00:56:53;;;;;;;4.00;3.70;;;20.00;1.00;;;;;;5070921;28;20513;-73
2023/08/12 00:59:20;;;;;;;5.13;4.67;;;19.90;1.00;;;;;;5070703;28;20424;-72
2023/08/12 01:01:47;;;;;;;5.40;4.20;;;19.90;1.00;;;;;;5072488;28;20436;-67
2023/08/12 01:04:13;;;;;;;5.03;4.07;;;19.90;1.00;;;;;;5071315;28;20474;-67
2023/08/12 01:06:38;;;;;;;4.97;4.10;;;19.90;1.00;;;;;;5069590;28;21236;-75
2023/08/12 01:09:05;;;;;;;6.63;4.23;;;19.80;1.00;;;;;;5072079;28;20171;-67
2023/08/12 01:11:39;;;;;;;4.80;4.40;;;19.80;1.00;;;;;;5075657;28;20162;-69
2023/08/12 01:14:17;;;;;;;4.40;4.10;;;19.90;1.00;;;;;;5074843;28;20914;-68
2023/08/12 01:16:51;;;;;;;4.30;4.00;;;19.90;1.00;;;;;;5066571;28;20487;-75
2023/08/12 01:19:43;;;;;;;5.47;4.53;;;19.90;1.00;;;;;;5075858;28;20877;-74
2023/08/12 01:22:11;;;;;;;4.40;4.10;;;19.90;1.00;;;;;;5072307;28;20432;-74
2023/08/12 01:24:41;;;;;;;10.60;4.10;;;19.90;1.00;;;;;;5075714;28;20492;-67
2023/08/12 01:27:09;;;;;;;6.87;5.27;;;19.90;1.00;;;;;;5073627;28;20770;-73
2023/08/12 01:29:40;;;;;;;5.10;3.80;;;19.90;1.00;;;;;;5071315;28;20424;-75
2023/08/12 01:32:28;;;;;;;4.80;3.70;;;19.90;1.00;;;;;;5055621;28;20393;-75
2023/08/12 01:35:07;;;;;;;4.93;3.53;;;19.80;1.00;;;;;;5055055;28;20405;-71
2023/08/12 01:37:34;;;;;;;4.67;4.30;;;19.80;1.00;;;;;;5069405;28;20556;-73
2023/08/12 01:40:04;;;;;;;6.33;4.60;;;19.80;1.00;;;;;;5075440;28;20411;-68
2023/08/12 01:42:31;;;;;;;8.13;5.50;;;19.70;1.00;;;;;;5075656;28;20753;-75
2023/08/12 01:44:57;;;;;;;4.40;4.10;;;19.70;1.00;;;;;;5074052;28;20444;-73
2023/08/12 01:47:22;;;;;;;4.57;4.27;;;19.60;1.00;;;;;;5074551;28;20477;-67
2023/08/12 01:49:48;;;;;;;5.60;3.90;;;19.60;1.00;;;;;;5074987;28;20404;-68
2023/08/12 01:52:15;;;;;;;4.47;4.03;;;19.60;1.00;;;;;;5073841;28;20250;-67
2023/08/12 01:54:40;;;;;;;4.63;4.23;;;19.60;1.00;;;;;;5075077;28;20178;-74
2023/08/12 01:57:07;;;;;;;4.80;4.40;;;19.50;1.00;;;;;;5072896;28;20510;-67
2023/08/12 01:59:37;;;;;;;4.57;4.17;;;19.50;1.00;;;;;;5073696;28;20189;-75
2023/08/12 02:02:03;;;;;;;4.80;4.40;;;19.50;1.00;;;;;;5075139;28;20404;-67
2023/08/12 02:04:29;;;;;;;5.60;4.40;;;19.50;1.00;;;;;;5075199;28;20401;-75
2023/08/12 02:06:55;;;;;;;4.77;4.43;;;19.40;1.00;;;;;;5072445;28;20454;-75
2023/08/12 02:09:22;;;;;;;6.50;4.60;;;19.40;1.00;;;;;;5074387;28;20397;-74
2023/08/12 02:11:51;;;;;;;7.70;4.20;;;19.40;1.00;;;;;;5075053;28;20407;-75
2023/08/12 02:14:17;;;;;;;4.83;4.33;;;19.40;1.00;;;;;;5074788;28;20426;-67
2023/08/12 02:16:42;;;;;;;6.00;5.50;;;19.40;1.00;;;;;;5072946;28;20543;-67
2023/08/12 02:19:08;;;;;;;7.10;5.43;;;19.40;1.00;;;;;;5074770;28;20543;-73
2023/08/12 02:21:34;;;;;;;7.40;5.20;;;19.40;1.00;;;;;;5072854;28;20220;-75
2023/08/12 02:23:59;;;;;;;5.43;4.40;;;19.40;1.00;;;;;;5074624;28;20170;-67
2023/08/12 02:26:25;;;;;;;5.17;4.77;;;19.40;1.00;;;;;;5073920;28;20525;-67
2023/08/12 02:28:51;;;;;;;6.90;4.53;;;19.40;1.00;;;;;;5072489;28;20197;-67
2023/08/12 02:31:17;;;;;;;10.50;4.50;;;19.40;1.00;;;;;;5054569;28;20186;-67
2023/08/12 02:33:43;;;;;;;6.63;4.47;;;19.40;1.00;;;;;;5054629;28;20178;-75
2023/08/12 02:36:08;;;;;;;4.20;3.90;;;19.40;1.00;;;;;;5053490;28;20228;-75
2023/08/12 02:38:34;;;;;;;5.00;4.60;;;19.40;1.00;;;;;;5068148;28;20471;-73
2023/08/12 02:41:00;;;;;;;5.83;4.43;;;19.40;1.00;;;;;;5074355;28;20700;-69
2023/08/12 02:43:26;;;;;;;4.00;3.77;;;19.30;1.00;;;;;;5072785;28;20193;-68
2023/08/12 02:45:51;;;;;;;4.57;4.10;;;19.30;1.00;;;;;;5066525;28;20266;-75
2023/08/12 02:48:17;;;;;;;4.87;4.37;;;19.20;1.00;;;;;;5053634;28;20190;-69
2023/08/12 02:50:44;;;;;;;6.20;5.60;;;19.20;1.00;;;;;;5054156;28;20402;-68
2023/08/12 02:53:09;;;;;;;6.23;4.67;;;19.20;1.00;;;;;;5063494;28;20440;-74
2023/08/12 02:55:36;;;;;;;5.20;4.70;;;19.20;1.00;;;;;;5072998;28;20569;-74
2023/08/12 02:58:03;;;;;;;4.50;4.20;;;19.10;1.00;;;;;;5072499;28;20554;-75
2023/08/12 03:00:28;;;;;;;4.90;4.40;;;19.10;1.00;;;;;;5074134;28;20489;-67
2023/08/12 03:02:54;;;;;;;5.03;4.70;;;19.10;1.00;;;;;;5062831;28;20437;-75
2023/08/12 03:05:21;;;;;;;4.90;4.60;;;19.10;1.00;;;;;;5065914;28;20189;-75
2023/08/12 03:07:47;;;;;;;5.33;4.93;;;19.10;1.00;;;;;;5070432;28;20730;-67
2023/08/12 03:10:13;;;;;;;4.63;4.23;;;19.10;1.00;;;;;;5073717;28;20483;-67
2023/08/12 03:12:38;;;;;;;4.87;4.47;;;19.10;1.00;;;;;;5073586;28;20547;-68
2023/08/12 03:15:07;;;;;;;4.77;4.47;;;19.10;1.00;;;;;;5072888;28;20412;-75
2023/08/12 03:17:32;;;;;;;5.27;4.87;;;19.10;1.00;;;;;;5073398;28;20198;-73
2023/08/12 03:20:01;;;;;;;4.67;4.17;;;19.10;1.00;;;;;;5054169;28;20495;-74
2023/08/12 03:22:27;;;;;;;5.07;4.67;;;19.10;1.00;;;;;;5053315;28;20178;-67
2023/08/12 03:24:53;;;;;;;5.57;5.17;;;19.10;1.00;;;;;;5056290;28;20475;-68
2023/08/12 03:27:19;;;;;;;4.73;4.33;;;19.10;1.00;;;;;;5052035;28;20809;-75
2023/08/12 03:29:45;;;;;;;4.90;4.50;;;19.10;1.00;;;;;;5053443;28;20189;-75
2023/08/12 03:32:10;;;;;;;4.30;4.00;;;19.10;1.00;;;;;;5052974;28;20505;-75
2023/08/12 03:34:36;;;;;;;7.07;4.60;;;19.20;1.00;;;;;;5053697;28;20179;-73
2023/08/12 03:37:02;;;;;;;4.97;4.30;;;19.20;1.00;;;;;;5069194;28;20214;-67
2023/08/12 03:39:27;;;;;;;4.40;4.00;;;19.20;1.00;;;;;;5069526;28;20269;-68
2023/08/12 03:41:53;;;;;;;7.10;5.30;;;19.20;2.50;;;;;;5073081;28;20573;-68
2023/08/12 03:44:19;;;;;;;4.93;4.27;;;19.20;9.00;;;;;;5072757;28;20170;-74
2023/08/12 03:46:45;;;;;;;4.97;4.63;;;19.10;9.90;;;;;;5072173;28;20539;-75
2023/08/12 03:49:11;;;;;;;7.57;5.30;;;19.10;11.20;;;;;;5071971;28;20304;-70
2023/08/12 03:51:36;;;;;;;5.60;5.03;;;19.00;5.70;;;;;;5061084;28;20193;-75
2023/08/12 03:54:03;;;;;;;5.40;5.07;;;19.00;7.10;;;;;;5051437;28;20592;-74
2023/08/12 03:56:29;;;;;;;6.30;5.37;;;19.00;8.80;;;;;;5052032;28;20210;-75
2023/08/12 03:58:55;;;;;;;6.00;5.50;;;19.00;10.90;;;;;;5051548;28;20522;-74
2023/08/12 04:01:21;;;;;;;4.70;4.30;;;19.10;13.10;;;;;;5051609;28;20184;-67
2023/08/12 04:03:47;;;;;;;5.53;4.90;;;19.10;14.90;;;;;;5052482;28;20170;-71
2023/08/12 04:06:13;;;;;;;4.90;4.50;;;19.10;18.60;;;;;;5051867;28;20793;-67
2023/08/12 04:08:39;;;;;;;4.97;4.50;;;19.10;27.60;;;;;;5065130;28;20547;-68
2023/08/12 04:11:04;;;;;;;5.43;5.03;;;19.10;40.20;;;;;;5055882;28;20194;-73
2023/08/12 04:13:30;;;;;;;4.77;4.30;;;19.10;54.80;;;;;;5052769;28;20447;-74
2023/08/12 04:15:56;;;;;;;5.50;5.00;;;19.00;69.20;;;;;;5051691;28;20230;-70
2023/08/12 04:18:22;;;;;;;5.43;4.90;;;19.00;81.40;;;;;;5052755;28;20196;-73
2023/08/12 04:20:52;;;;;;;4.87;4.47;;;19.00;93.80;;;;;;5051759;28;20189;-67
2023/08/12 04:23:17;;;;;;;6.43;5.20;;;19.00;95.30;;;;;;5055961;28;20170;-68
2023/08/12 04:25:45;;;;;;;6.07;5.57;;;18.90;96.80;;;;;;5064001;28;20440;-73
2023/08/12 04:28:11;;;;;;;6.50;5.90;;;18.90;99.90;;;;;;5072545;28;20213;-68
2023/08/12 04:30:44;;;;;;;6.70;6.00;;;18.90;99.90;;;;;;5072649;28;20801;-74
2023/08/12 04:33:10;;;;;;;6.57;6.00;;;18.90;99.90;;;;;;5072867;28;20404;-73
2023/08/12 04:35:36;;;;;;;7.50;5.70;;;18.80;99.90;;;;;;5071632;28;20452;-73
2023/08/12 04:38:02;;;;;;;5.40;5.10;;;18.60;99.90;;;;;;5069781;28;20463;-69
2023/08/12 04:40:28;;;;;;;11.40;5.63;;;18.60;99.90;;;;;;5057366;28;20199;-68
2023/08/12 04:42:54;;;;;;;5.93;5.43;;;18.50;99.90;;;;;;5072524;28;20404;-73
2023/08/12 04:45:19;;;;;;;5.90;5.50;;;18.60;99.90;;;;;;5073211;28;20489;-73
2023/08/12 04:47:45;;;;;;;6.30;5.80;;;18.50;99.90;;;;;;5076614;28;20696;-70
2023/08/12 04:50:11;;;;;;;7.97;6.13;;;18.50;99.90;;;;;;5075325;28;20175;-74
2023/08/12 04:52:36;;;;;;;10.13;6.97;;;18.50;99.90;;;;;;5065917;28;20209;-68
2023/08/12 04:55:03;;;;;;;6.57;5.80;;;18.50;99.90;;;;;;5055647;28;20636;-74
2023/08/12 04:57:28;;;;;;;6.20;5.53;;;18.60;99.90;;;;;;5056323;28;20183;-68
2023/08/12 04:59:55;;;;;;;6.43;5.80;;;18.60;99.90;;;;;;5070161;28;20956;-68
2023/08/12 05:02:21;;;;;;;6.73;5.93;;;18.60;99.90;;;;;;5075036;28;20197;-68
2023/08/12 05:04:49;;;;;;;8.40;5.87;;;18.60;99.90;;;;;;5076182;28;20408;-73
2023/08/12 05:07:15;;;;;;;7.93;6.50;;;18.70;99.90;;;;;;5071164;28;20835;-75
2023/08/12 05:09:43;;;;;;;9.10;6.87;;;18.70;99.90;;;;;;5056333;28;20407;-73
2023/08/12 05:12:09;;;;;;;7.50;6.90;;;18.70;99.90;;;;;;5056058;28;20416;-73
2023/08/12 05:14:35;;;;;;;6.50;5.93;;;18.70;99.90;;;;;;5055889;28;20488;-69
2023/08/12 05:17:01;;;;;;;7.37;5.97;;;18.70;99.90;;;;;;5054972;28;20894;-73
2023/08/12 05:19:26;;;;;;;6.77;6.00;;;18.60;99.90;;;;;;5055346;28;20175;-73
2023/08/12 05:21:52;;;;;;;7.47;6.47;;;18.60;99.90;;;;;;5060325;28;20182;-68
2023/08/12 05:24:18;;;;;;;6.37;5.97;;;18.70;99.90;;;;;;5075840;28;20166;-67
2023/08/12 05:26:43;;;;;;;7.93;7.10;;;18.70;99.90;;;;;;5073343;28;20232;-67
2023/08/12 05:29:09;;;;;;;7.87;7.27;;;18.80;99.90;;;;;;5075914;28;20188;-68
2023/08/12 05:31:35;;;;;;;9.70;7.20;;;18.80;99.90;;;;;;5075688;28;20162;-74
2023/08/12 05:34:00;;;;;;;6.60;6.10;;;18.80;99.90;;;;;;5075644;28;20174;-73
2023/08/12 05:36:26;;;;;;;7.70;6.87;;;18.80;99.90;;;;;;5073169;28;20285;-73
2023/08/12 05:38:52;;;;;;;6.50;5.90;;;18.80;99.90;;;;;;5074921;28;20190;-67
2023/08/12 05:41:17;;;;;;;7.20;6.70;;;18.90;99.90;;;;;;5075553;28;20254;-67
2023/08/12 05:43:43;;;;;;;11.47;6.97;;;18.90;99.90;;;;;;5071369;28;20663;-68
2023/08/12 05:46:09;;;;;;;8.27;6.67;;;18.90;99.90;;;;;;5072634;28;20196;-68
2023/08/12 05:48:34;;;;;;;7.30;6.70;;;18.90;99.90;;;;;;5075199;28;20197;-70
2023/08/12 05:51:00;;;;;;;6.87;6.37;;;18.90;99.90;;;;;;5075346;28;20675;-74
2023/08/12 05:53:26;;;;;;;6.87;6.17;;;18.80;99.90;;;;;;5055105;28;20698;-73
2023/08/12 05:55:51;;;;;;;7.37;6.00;;;18.80;99.90;;;;;;5053290;28;20195;-69
2023/08/12 05:58:17;;;;;;;7.10;6.50;;;18.80;99.90;;;;;;5055868;28;20265;-70
2023/08/12 06:00:46;;;;;;;17.47;7.03;;;18.80;99.90;;;;;;5075060;28;20212;-73
2023/08/12 06:03:12;;;;;;;9.60;6.40;;;18.80;99.90;;;;;;5073315;28;20186;-68
2023/08/12 06:05:40;;;;;;;7.43;6.57;;;18.70;99.90;;;;;;5074136;28;20410;-68
2023/08/12 06:08:05;;;;;;;8.40;6.43;;;18.70;99.90;;;;;;5061053;28;20461;-67
2023/08/12 06:10:31;;;;;;;8.93;7.00;;;18.70;99.90;;;;;;5071028;28;20428;-69
2023/08/12 06:12:57;;;;;;;13.63;7.13;;;18.70;99.90;;;;;;5073848;28;20539;-73
2023/08/12 06:15:22;;;;;;;8.37;7.13;;;18.70;99.90;;;;;;5072377;28;20195;-67
2023/08/12 06:17:48;;;;;;;8.73;5.80;;;18.70;1.00;;;;;;5074657;28;20520;-71
2023/08/12 06:20:14;;;;;;;7.30;6.60;;;18.70;1.00;;;;;;5073936;28;20177;-66
2023/08/12 06:22:40;;;;;;;7.73;7.10;;;18.80;1.00;;;;;;5065168;28;20232;-70
2023/08/12 06:25:05;;;;;;;10.90;8.03;;;18.80;1.00;;;;;;5073746;28;20173;-70
2023/08/12 06:27:31;;;;;;;7.70;7.00;;;18.80;1.00;;;;;;5074580;28;20218;-67
2023/08/12 06:29:57;;;;;;;7.53;6.67;;;18.80;1.00;;;;;;5070507;28;20344;-73
2023/08/12 06:32:23;;;;;;;6.93;6.47;;;18.80;1.00;;;;;;5052788;28;20191;-67
2023/08/12 06:34:48;;;;;;;7.80;6.87;;;18.80;1.00;;;;;;5053578;28;20292;-70
2023/08/12 06:37:14;;;;;;;8.20;6.30;;;18.80;1.00;;;;;;5055598;28;20264;-72
2023/08/12 06:39:39;;;;;;;7.30;6.70;;;18.80;1.00;;;;;;5073118;28;20277;-72
2023/08/12 06:42:05;;;;;;;11.00;7.03;;;18.80;1.00;;;;;;5055528;28;20175;-73
2023/08/12 06:44:31;;;;;;;7.43;6.70;;;18.80;1.00;;;;;;5053151;28;20174;-67
2023/08/12 06:46:57;;;;;;;7.70;7.03;;;18.80;1.00;;;;;;5054413;28;20813;-68
2023/08/12 06:49:22;;;;;;;7.20;6.50;;;18.80;1.00;;;;;;5053044;28;20279;-73
2023/08/12 06:51:48;;;;;;;9.73;7.30;;;18.80;1.00;;;;;;5053733;28;20233;-67
2023/08/12 06:54:14;;;;;;;8.03;6.80;;;18.90;1.00;;;;;;5069882;28;20273;-67
2023/08/12 06:56:39;;;;;;;7.30;6.70;;;18.90;1.00;;;;;;5073068;28;20193;-73
2023/08/12 06:59:05;;;;;;;7.50;7.00;;;18.90;1.00;;;;;;5073987;28;20504;-73
2023/08/12 07:01:31;;;;;;;7.73;7.13;;;18.90;1.00;;;;;;5060019;28;20183;-67
2023/08/12 07:03:57;;;;;;;7.73;7.07;;;18.90;1.00;;;;;;5053862;28;20625;-73
2023/08/12 07:06:22;;;;;;;7.67;7.07;;;19.00;1.00;;;;;;5053089;28;20224;-72
2023/08/12 07:08:48;;;;;;;8.07;7.27;;;18.90;1.00;;;;;;5063673;28;20602;-73
2023/08/12 07:11:14;;;;;;;7.80;7.10;;;18.90;1.00;;;;;;5072170;28;20178;-73
2023/08/12 07:13:39;;;;;;;7.27;6.67;;;18.90;1.00;;;;;;5073822;28;20174;-68
2023/08/12 07:16:05;;;;;;;7.67;7.10;;;18.90;1.00;;;;;;5060862;28;20195;-67
2023/08/12 07:18:31;;;;;;;7.40;6.60;;;18.90;1.00;;;;;;5063330;28;20563;-67
2023/08/12 07:20:58;;;;;;;11.47;6.87;;;19.00;1.00;;;;;;5056307;28;20185;-70
2023/08/12 07:23:24;;;;;;;7.20;6.63;;;19.00;1.00;;;;;;5059693;28;20613;-72
2023/08/12 07:25:49;;;;;;;9.17;7.90;;;19.00;1.00;;;;;;5051210;28;20522;-66
2023/08/12 07:28:15;;;;;;;8.23;7.63;;;19.10;1.00;;;;;;5052382;28;20413;-66
2023/08/12 07:30:41;;;;;;;8.43;7.63;;;19.10;1.00;;;;;;5054542;28;20183;-65
2023/08/12 07:33:07;;;;;;;8.37;7.67;;;19.10;1.00;;;;;;5073317;28;20397;-66
2023/08/12 07:35:33;;;;;;;10.27;8.67;;;19.10;1.00;;;;;;5070964;28;20452;-65
2023/08/12 07:37:59;;;;;;;8.47;7.57;;;19.10;1.00;;;;;;5070454;28;20284;-66
2023/08/12 07:40:25;;;;;;;7.73;7.03;;;19.10;1.00;;;;;;5066110;28;20487;-69
2023/08/12 07:42:50;;;;;;;8.17;7.30;;;19.10;1.00;;;;;;5053247;28;20408;-70
2023/08/12 07:45:16;;;;;;;9.10;8.23;;;19.10;1.00;;;;;;5059911;28;20212;-65
2023/08/12 07:47:42;;;;;;;9.47;8.17;;;19.10;1.00;;;;;;5053022;28;20195;-70
2023/08/12 07:50:08;;;;;;;8.20;7.50;;;19.10;1.00;;;;;;5053089;28;20170;-70
2023/08/12 07:52:33;;;;;;;9.13;7.90;;;19.10;1.00;;;;;;5063002;28;20182;-69
2023/08/12 07:54:59;;;;;;;9.03;7.40;;;19.10;1.00;;;;;;5052712;28;20428;-65
2023/08/12 07:57:25;;;;;;;8.47;7.60;;;19.00;1.00;;;;;;5052183;28;20548;-69
2023/08/12 07:59:51;;;;;;;8.17;7.33;;;19.10;1.00;;;;;;5056636;28;20182;-71
2023/08/12 08:02:17;;;;;;;8.10;7.30;;;19.10;1.00;;;;;;5053589;28;20643;-66
2023/08/12 08:04:43;;;;;;;8.00;7.40;;;19.10;1.00;;;;;;5052784;28;20496;-71
2023/08/12 08:07:09;;;;;;;8.73;8.03;;;19.20;1.00;;;;;;5060763;28;20533;-65
2023/08/12 08:09:35;;;;;;;9.97;9.13;;;19.30;1.00;;;;;;5071793;28;20443;-65
2023/08/12 08:12:01;;;;;;;9.13;8.20;;;19.30;1.00;;;;;;5072732;28;20327;-72
2023/08/12 08:14:27;;;;;;;9.63;8.67;;;19.30;1.00;;;;;;5069605;28;20182;-68
2023/08/12 08:16:53;;;;;;;9.80;8.90;;;19.40;1.00;;;;;;5056271;28;20499;-68
2023/08/12 08:19:19;;;;;;;8.30;7.50;;;19.40;1.00;;;;;;5050536;28;20433;-71
2023/08/12 08:21:45;;;;;;;12.60;8.57;;;19.40;1.00;;;;;;5053141;28;20843;-67
2023/08/12 08:24:12;;;;;;;8.13;7.33;;;19.50;1.00;;;;;;5052630;28;20167;-68
2023/08/12 08:26:40;;;;;;;10.73;7.70;;;19.40;1.00;;;;;;5051645;28;20194;-68
2023/08/12 08:29:06;;;;;;;10.03;7.90;;;19.50;1.00;;;;;;5052301;28;20484;-68
2023/08/12 08:31:32;;;;;;;9.13;8.23;;;19.40;1.00;;;;;;5052632;28;20496;-72
2023/08/12 08:33:58;;;;;;;11.07;8.90;;;19.50;1.00;;;;;;5052507;28;20415;-68
2023/08/12 08:36:26;;;;;;;19.10;9.93;;;19.50;1.00;;;;;;5053112;28;20465;-67
2023/08/12 08:38:52;;;;;;;13.13;8.90;;;19.60;1.00;;;;;;5051672;28;20202;-70
2023/08/12 08:41:18;;;;;;;13.37;10.17;;;19.70;1.00;;;;;;5052560;28;20940;-68
2023/08/12 08:43:48;;;;;;;10.13;9.33;;;19.80;1.00;;;;;;5051584;28;20178;-71
2023/08/12 08:46:15;;;;;;;9.87;8.87;;;20.00;1.00;;;;;;5050015;28;20464;-72
2023/08/12 08:48:44;;;;;;;10.53;9.50;;;20.10;1.00;;;;;;5072460;28;20463;-71
2023/08/12 08:51:11;;;;;;;9.50;8.70;;;20.20;1.00;;;;;;5068055;28;20444;-68
2023/08/12 08:53:40;;;;;;;10.80;9.80;;;20.30;1.00;;;;;;5072413;28;20424;-72
2023/08/12 08:56:08;;;;;;;11.80;9.20;;;20.40;1.00;;;;;;5070892;28;20450;-68
2023/08/12 08:58:34;;;;;;;11.07;9.90;;;20.50;1.00;;;;;;5072274;28;20495;-74
2023/08/12 09:01:01;;;;;;;11.47;10.30;;;20.60;1.00;;;;;;5071311;28;20474;-70
2023/08/12 09:03:27;;;;;;;10.10;9.00;;;20.50;1.00;;;;;;5071092;28;20519;-70
2023/08/12 09:05:55;;;;;;;12.73;8.07;;;20.50;1.00;;;;;;5063278;28;20470;-73
2023/08/12 09:08:22;;;;;;;8.93;7.60;;;20.50;1.00;;;;;;5072359;28;20901;-68
2023/08/12 09:10:48;;;;;;;10.20;9.30;;;20.60;1.00;;;;;;5072300;28;20439;-68
2023/08/12 09:13:14;;;;;;;8.57;7.87;;;20.60;1.00;;;;;;5072197;28;20412;-69
2023/08/12 09:15:40;;;;;;;9.30;8.50;;;20.80;1.00;;;;;;5070871;28;20444;-70
2023/08/12 09:18:07;;;;;;;13.23;10.60;;;20.90;1.00;;;;;;5056314;28;20449;-69
2023/08/12 09:20:33;;;;;;;9.40;8.47;;;20.90;1.00;;;;;;5052197;28;20436;-73
2023/08/12 09:23:00;;;;;;;9.23;8.43;;;20.90;1.00;;;;;;5052305;28;20763;-70
2023/08/12 09:25:29;;;;;;;11.03;9.30;;;21.00;1.00;;;;;;5051222;28;20402;-69
2023/08/12 09:27:59;;;;;;;11.80;8.83;;;21.00;1.00;;;;;;5052044;28;20413;-73
2023/08/12 09:30:27;;;;;;;9.83;8.83;;;21.10;1.00;;;;;;5052055;28;20475;-71
2023/08/12 09:33:06;;;;;;;9.73;8.83;;;21.30;1.00;;;;;;5054474;28;20396;-68
2023/08/12 09:35:43;;;;;;;11.90;10.57;;;21.50;1.00;;;;;;5053679;28;21073;-69
2023/08/12 09:38:12;;;;;;;10.50;9.50;;;21.50;1.00;;;;;;5055387;28;20409;-68
2023/08/12 09:40:39;;;;;;;12.37;10.40;;;21.60;1.00;;;;;;5055444;28;20398;-70
2023/08/12 09:43:05;;;;;;;11.00;9.90;;;21.60;1.00;;;;;;5055589;28;20489;-71
2023/08/12 09:45:32;;;;;;;12.07;10.87;;;21.50;1.00;;;;;;5054562;28;20456;-68
2023/08/12 09:47:58;;;;;;;12.97;11.67;;;21.30;1.00;;;;;;5053681;28;20477;-70
2023/08/12 09:50:25;;;;;;;11.70;10.67;;;21.30;1.00;;;;;;5055185;28;20477;-69
2023/08/12 09:52:53;;;;;;;11.93;10.73;;;21.30;1.00;;;;;;5055155;28;20734;-68
2023/08/12 09:55:21;;;;;;;11.43;10.43;;;21.30;1.00;;;;;;5054227;28;20484;-68
2023/08/12 09:57:52;;;;;;;13.30;11.73;;;21.40;1.00;;;;;;5054874;28;20842;-71
2023/08/12 10:00:20;;;;;;;11.73;10.67;;;21.50;1.00;;;;;;5055003;28;20406;-71
2023/08/12 10:02:47;;;;;;;12.10;11.00;;;21.60;1.00;;;;;;5054811;28;20429;-71
2023/08/12 10:05:19;;;;;;;11.00;10.00;;;21.70;1.00;;;;;;5054157;28;20404;-72
2023/08/12 10:07:45;;;;;;;12.13;10.60;;;21.90;1.00;;;;;;5054523;28;20471;-68
2023/08/12 10:10:12;;;;;;;11.13;10.00;;;22.00;1.00;;;;;;5054967;28;21135;-66
2023/08/12 10:12:39;;;;;;;11.77;10.13;;;22.10;1.00;;;;;;5054787;28;20394;-67
2023/08/12 10:15:10;;;;;;;12.20;10.27;;;22.00;1.00;;;;;;5053059;28;20409;-73
2023/08/12 10:17:36;;;;;;;12.27;9.40;;;22.00;1.00;;;;;;5064072;28;20495;-69
2023/08/12 10:20:04;;;;;;;10.83;9.83;;;21.80;1.00;;;;;;5074819;28;20488;-70
2023/08/12 10:22:31;;;;;;;13.60;10.77;;;21.80;1.00;;;;;;5074942;28;20408;-68
2023/08/12 10:25:02;;;;;;;11.37;9.83;;;21.80;1.00;;;;;;5073881;28;20479;-68
2023/08/12 10:27:29;;;;;;;12.97;10.23;;;21.70;1.00;;;;;;5073501;28;20471;-71
2023/08/12 10:29:57;;;;;;;13.40;10.20;;;21.60;1.00;;;;;;5074679;28;20405;-72
2023/08/12 10:32:24;;;;;;;10.30;8.20;;;21.60;1.00;;;;;;5057156;28;20893;-71
2023/08/12 10:34:57;;;;;;;9.90;8.80;;;21.60;1.00;;;;;;5073106;28;20933;-72
2023/08/12 10:37:24;;;;;;;10.30;9.30;;;21.70;1.00;;;;;;5070058;28;20551;-70
2023/08/12 10:39:55;;;;;;;10.00;8.20;;;21.60;1.00;;;;;;5054516;28;20951;-71
2023/08/12 10:42:53;;;;;;;11.20;9.10;;;21.60;1.00;;;;;;5052759;28;20417;-70
2023/08/12 10:45:19;;;;;;;9.50;8.70;;;21.70;1.00;;;;;;5029796;28;20406;-72
2023/08/12 10:48:17;;;;;;;12.03;9.60;;;21.70;1.00;;;;;;5069591;28;20470;-67
2023/08/12 10:50:49;;;;;;;12.90;9.73;;;21.70;1.00;;;;;;5074202;28;20560;-68
2023/08/12 10:53:29;;;;;;;11.67;9.00;;;21.80;1.00;;;;;;5056466;28;20548;-70
2023/08/12 10:55:56;;;;;;;9.40;8.53;;;21.80;1.00;;;;;;5053174;28;20520;-73
2023/08/12 10:58:33;;;;;;;8.57;7.73;;;21.90;1.00;;;;;;5054022;28;20419;-67
2023/08/12 11:00:59;;;;;;;13.03;9.90;;;21.90;1.00;;;;;;5063661;28;20424;-70
2023/08/12 11:03:25;;;;;;;11.20;9.70;;;21.90;99.90;;;;;;5073849;28;20885;-69
2023/08/12 11:05:55;;;;;;;10.63;9.53;;;21.80;99.90;;;;;;5073183;28;20174;-71
2023/08/12 11:08:26;;;;;;;10.60;9.33;;;21.80;99.90;;;;;;5065173;28;20453;-71
2023/08/12 11:10:55;;;;;;;10.17;9.23;;;21.90;99.90;;;;;;5053756;28;20794;-68
2023/08/12 11:13:21;;;;;;;14.00;9.20;;;21.90;99.90;;;;;;5053681;28;20404;-70
2023/08/12 11:15:49;;;;;;;12.27;9.70;;;21.90;99.90;;;;;;5055890;28;20798;-71
2023/08/12 11:18:18;;;;;;;9.40;8.37;;;21.90;99.90;;;;;;5073525;28;20186;-72
2023/08/12 11:20:47;;;;;;;10.30;8.87;;;21.80;99.90;;;;;;5073079;28;20909;-71
2023/08/12 11:23:13;;;;;;;10.73;8.50;;;21.80;99.90;;;;;;5073479;28;20967;-73
2023/08/12 11:25:40;;;;;;;11.90;8.13;;;21.80;99.90;;;;;;5060166;28;20434;-72
2023/08/12 11:28:07;;;;;;;10.83;6.93;;;21.80;99.90;;;;;;5053401;28;20413;-70
2023/08/12 11:30:33;;;;;;;10.03;9.07;;;21.70;99.90;;;;;;5056207;28;20435;-74
2023/08/12 11:33:01;;;;;;;10.50;9.40;;;21.70;99.90;;;;;;5072538;28;20428;-72
2023/08/12 11:35:27;;;;;;;10.37;9.40;;;21.60;99.90;;;;;;5071442;28;20471;-67
2023/08/12 11:37:55;;;;;;;11.93;10.77;;;21.50;99.90;;;;;;5073307;28;20427;-70
2023/08/12 11:40:23;;;;;;;9.70;8.80;;;21.50;99.90;;;;;;5072934;28;20399;-69
2023/08/12 11:42:50;;;;;;;11.70;10.50;;;21.50;99.90;;;;;;5071241;28;20815;-72
2023/08/12 11:45:18;;;;;;;9.23;8.33;;;21.50;99.90;;;;;;5071412;28;20393;-75
2023/08/12 11:47:45;;;;;;;12.93;9.37;;;21.50;99.90;;;;;;5053371;28;20425;-69
2023/08/12 11:50:12;;;;;;;10.80;9.20;;;21.50;99.90;;;;;;5053094;28;20750;-67
2023/08/12 11:52:40;;;;;;;10.13;9.13;;;21.50;99.90;;;;;;5056292;28;20473;-67
2023/08/12 11:55:07;;;;;;;13.20;10.47;;;21.50;99.90;;;;;;5071477;28;21002;-70
2023/08/12 11:57:36;;;;;;;12.40;10.70;;;21.50;1.00;;;;;;5072690;28;20494;-70
2023/08/12 12:00:08;;;;;;;12.13;10.57;;;21.50;1.00;;;;;;5072502;28;20749;-70
2023/08/12 12:02:45;;;;;;;13.70;10.70;;;21.40;1.00;;;;;;5071147;28;20831;-71
2023/08/12 12:05:12;;;;;;;10.97;9.87;;;21.40;1.00;;;;;;5071132;28;20404;-67
2023/08/12 12:07:38;;;;;;;11.63;10.63;;;21.30;1.00;;;;;;5071527;28;20853;-68
2023/08/12 12:10:05;;;;;;;11.60;10.50;;;21.30;1.00;;;;;;5071498;28;20420;-70
2023/08/12 12:12:36;;;;;;;15.67;10.87;;;21.20;1.00;;;;;;5070251;28;20397;-70
2023/08/12 12:15:02;;;;;;;14.63;11.07;;;21.20;1.00;;;;;;5052430;28;20419;-74
2023/08/12 12:17:28;;;;;;;21.83;10.90;;;21.20;1.00;;;;;;5052330;28;20599;-69
2023/08/12 12:19:59;;;;;;;12.47;11.30;;;21.20;1.00;;;;;;5055758;28;20995;-67
2023/08/12 12:22:35;;;;;;;15.67;12.40;;;21.20;1.00;;;;;;5058710;28;20524;-66
2023/08/12 12:25:09;;;;;;;12.80;11.50;;;21.20;1.00;;;;;;5054094;28;20408;-75
2023/08/12 12:27:36;;;;;;;13.77;12.47;;;21.20;1.00;;;;;;5068386;28;20420;-66
2023/08/12 12:30:02;;;;;;;13.77;12.37;;;21.20;1.00;;;;;;5052733;28;20886;-66
2023/08/12 12:32:28;;;;;;;14.70;13.20;;;21.10;1.00;;;;;;5052776;28;20412;-66
2023/08/12 12:34:55;;;;;;;15.30;12.07;;;21.10;1.00;;;;;;5067851;28;20177;-71
2023/08/12 12:37:20;;;;;;;15.60;13.10;;;21.10;1.00;;;;;;5071544;28;20448;-67
2023/08/12 12:39:46;;;;;;;15.43;13.73;;;21.00;1.00;;;;;;5071019;28;20752;-68
2023/08/12 12:42:12;;;;;;;14.50;12.87;;;21.00;1.00;;;;;;5072517;28;20158;-69
2023/08/12 12:44:38;;;;;;;13.73;12.33;;;20.90;1.00;;;;;;5070225;28;20585;-68
2023/08/12 12:47:04;;;;;;;12.80;11.50;;;20.90;1.00;;;;;;5054724;28;20222;-67
2023/08/12 12:49:30;;;;;;;14.57;12.20;;;20.80;1.00;;;;;;5052417;28;20245;-67